If you wish to contribute or participate in the discussions about articles you are invited to join SKYbrary as a registered user

 Actions

Dinard-Pleurtuit-Saint-Malo Airport

From SKYbrary Wiki

LFRD
Airport
ICAO: LFRD – IATA: DNR
Summary
Name Dinard-Pleurtuit-Saint-Malo Airport
Region Europe
Territory France FR.gif
Location , Bretagne
Serving Dinard
Elevation 66.751 m
219 ft
219 ft66.751 m
Type medium airport
Coordinates 48° 35' 15.66" N, 2° 4' 47.85" W
Runways
Designator Length Width Surface ROPS
12/30 1435 m4,708.005 ft
45 m147.638 ft
ASP yes/yes
17/35 2200 m7,217.848 ft
45 m147.638 ft
ASP yes/yes


METAR
Observation LFRD 251830Z AUTO 35006KT CAVOK 18/15 Q1019 NOSIG
Station Dinard
Date/Time 25 August 2019 18:30:00
Wind direction 350°
Wind speed 06 kts
Lowest cloud amount clouds and visibility OK
Temperature 18°C
Dew point 15°C
Humidity 82%
QNH 1019 hPa
Weather condition n/a